首页
METAR-TAF:

METAR-TAF

机场 :

昆明长水国际机场

昆明, 中华人民共和国

纬度: 25-01N, 经度: 102-41E, 海拔: 1892米

当前天气观测

该预报发布于19分钟前的00:00 UTC
风速2节,风向多变
温度 9°C
湿度 57%
气压 1023 hPa
能见度10公里或以上
1500米以下无云,无积雨云

METAR: ZPPP 260000Z VRB01MPS CAVOK 09/01 Q1023 BECMG TL0150 23010MPS

时间: 08:19 (00:19 UTC)

预报

该预报发布于3小时和6分钟前的21:13 UTC
预报有效从26日的 00点(UTC)到 26日的 24点(UTC)
风速12节,风向西南
能见度10公里或以上
散云层高于2600英尺
成为
从 26日的 02点(UTC)到 26日的 03点(UTC)
风速23节,风向西南,有时为39节阵风
成为
从 26日的 11点(UTC)到 26日的 12点(UTC)
风速12节,风向西南

TAF: ZPPP 252113Z 2600/2624 23006MPS 9999 SCT026 TX22/2608Z TN09/2623Z BECMG 2602/2603 23012G20MPS BECMG 2611/2612 23006MPS

超过4000个机场的气象观测和天气预报(METAR&TAF报告)。

可查询的气象台以黄色和红色小点在地图上表示。

将鼠标移到小点上方,可查看气象台名称。

然后点击查看天气观测和预报。

如需切换地图:点击带黑十字的绿色按钮放大地图;点击带横线的绿色按钮缩小地图;或者点击绿色箭头查看邻近地区的地图。


METAR-TAF: